Supai, AZ

6:38 PM MST on July 24, 2014 (GMT -0700)
APRSWXNET Grand Canyon AZ US (MAR412) Elev 6830 ft | 36.05 °N, 112.13 °W | Change Station
Active Advisory: Areal Flood Advisory Active Notice: Record Report

Current weather conditions updated 35 minutes ago

Overcast
Overcast
70 °F
Feels Like 70 °F
N
4
Wind Variable Wind from SSW
Gusts 11.0 mph

Tomorrow is forecast to be Warmer than today.

Today
High -- | Low -- °F
--% Chance of Precip.
Yesterday
High -- | Low -- °F
Precip. -- in
5:31 AM 7:41 PM
Waning Crescent, 3% visible
Pressure 30.02 in
Visibility 10.0 miles
Clouds Overcast 10000 ft
Dew Point 52 °F
Humidity 53%
Rainfall 0.00 in
Snow Depth Not available.
UV 0 out of 12
Pollen 5.50 out of 12
Air Quality Not available.
Flu Activity Not available.
METAR KGCN 250054Z 25008KT 10SM -RA OVC100 18/16 A3029 RMK AO2 LTG DSNT N RAB10 SLP165 P0002 T01830156 $

More Conditions Fewer Conditions

Pressure 30.02 in
Visibility 10.0 miles
Clouds Overcast 10000 ft
Dew Point 52 °F
Humidity 53%
Rainfall 0.00 in
Snow Depth Not available.
UV 0 out of 12
Pollen 5.50 out of 12
Air Quality Not available.
Flu Activity Not available.
METAR KGCN 250054Z 25008KT 10SM -RA OVC100 18/16 A3029 RMK AO2 LTG DSNT N RAB10 SLP165 P0002 T01830156 $

More Conditions Fewer Conditions

10-Day Weather Forecast

Almanac

Astronomy

Jul. 24, 2014 Rise Set
Actual Time 5:31 AM MST 7:41 PM MST
Civil Twilight 5:02 AM MST 8:10 PM MST
Nautical Twilight 4:26 AM MST 8:45 PM MST
Astronomical Twilight 3:48 AM MST 9:23 PM MST
Moon 3:41 AM MST (7/24) 6:00 PM MST (7/24)
Length of Visible Light 15h 08m
Length of Day
14h 10m
Tomorrow will be 1m 29s shorter.
Waning Crescent, 3% of the Moon is Illuminated
Today
Waning Crescent
Jul 26
New
Aug 3
First Quarter
Aug 10
Full
Aug 17
Last Quarter

Today's Extremes

State Highs State Lows

Community

WunderPhotos

Upload Photos

1,737,184 photos uploaded!

Nearby

Snow Depth

Station Depth Elevation
Snowslide Canyon 0 in 9730 ft

Earthquake Activity

City Distance Mag. Time & Date
No recent earthquake activity has been reported nearby.
Minimum magnitude displayed is 2.5.

Coastal Water Temperatures

Place Temperature
No Stations Reporting

Nearby Weather Stations

Station Location Temp. Dew Point Humidity Wind Precip. Elev Updated Type
APRSWXNET Grand Canyon AZ U, Grand Canyon, AZ 70 °F 52 °F 53% SSW  at  4 mph 0.00 in / hr 6830 ft 6:03 PM MST MADIS
Grand Canyon, AZ 67.5 °F 53 °F 59% SSW  at  0.0 mph 0.00 in / hr 6991 ft 6:37 PM MST Rapid Fire

Show More Stations Show Fewer Stations